Time;durP1;ratioP1;P1;durP2;ratioP2;P2;SDS_P1;SDS_P2;PMS_P1;PMS_P2;Temp;Humidity;BMP_temperature;BMP_pressure;BME280_temperature;BME280_humidity;BME280_pressure;Samples;Min_cycle;Max_cycle;Signal;HPM_P1;HPM_P2
2023/03/29 16:49:37;;;;;;;;;;;;;;;15.20;49.16;98020.53;5414282;23;19926;-63
2023/03/29 16:52:03;;;;;;;;;;;;;;;15.10;49.67;98022.34;4973158;28;20005;-63
2023/03/29 16:54:30;;;;;;;;;;;;;;;15.04;50.20;98017.63;4971766;28;19993;-64
2023/03/29 16:56:56;;;;;;;;;;;;;;;14.94;50.96;98009.69;4973291;28;20021;-63
2023/03/29 16:59:21;;;;;;;;;;;;;;;14.87;51.22;98019.97;4959923;28;20013;-63
2023/03/29 17:01:47;;;;;;;;;;;;;;;14.78;51.50;98015.50;4952838;28;19970;-64
2023/03/29 17:04:12;;;;;;;;;;;;;;;14.70;51.65;98016.19;4953561;28;20000;-63
2023/03/29 17:06:37;;;;;;;;;;;;;;;14.64;51.87;98013.25;4950357;29;20094;-64
2023/03/29 17:09:03;;;;;;;;;;;;;;;14.58;51.88;98009.34;4950690;28;20016;-63
2023/03/29 17:11:29;;;;;;;;;;;;;;;14.52;52.45;98001.97;4952441;29;19926;-65
2023/03/29 17:13:54;;;;;;;;;;;;;;;14.44;52.73;97999.97;4952449;29;19914;-65
2023/03/29 17:16:19;;;;;;;;;;;;;;;14.38;52.48;98005.81;4947562;28;19915;-63
2023/03/29 17:18:45;;;;;;;;;;;;;;;14.29;52.94;98009.22;4951247;28;19930;-63
2023/03/29 17:21:10;;;;;;;;;;;;;;;14.21;53.28;98011.69;4953505;28;19924;-64
2023/03/29 17:23:35;;;;;;;;;;;;;;;14.14;53.56;98013.19;4952536;29;19978;-63
2023/03/29 17:26:01;;;;;;;;;;;;;;;14.04;53.79;98010.53;4951459;29;19962;-63
2023/03/29 17:28:26;;;;;;;;;;;;;;;13.98;54.09;98019.78;4951047;28;20364;-65
2023/03/29 17:30:51;;;;;;;;;;;;;;;13.89;54.19;98022.34;4952374;29;19919;-64
2023/03/29 17:33:19;;;;;;;;;;;;;;;13.81;54.17;98015.09;4951336;28;19929;-66
2023/03/29 17:35:45;;;;;;;;;;;;;;;13.77;54.27;98009.25;4955105;29;19969;-65
2023/03/29 17:38:10;;;;;;;;;;;;;;;13.70;55.16;98007.28;4954974;28;19914;-65
2023/03/29 17:40:35;;;;;;;;;;;;;;;13.63;55.35;98009.59;4956045;29;19973;-64
2023/03/29 17:43:01;;;;;;;;;;;;;;;13.60;55.03;98003.75;4955846;29;20364;-65
2023/03/29 17:45:26;;;;;;;;;;;;;;;13.52;55.67;97999.09;4954157;29;20029;-65
2023/03/29 17:47:51;;;;;;;;;;;;;;;13.46;56.37;98000.47;4952637;28;20398;-64
2023/03/29 17:50:16;;;;;;;;;;;;;;;13.40;57.05;98000.13;4956775;28;20399;-64
2023/03/29 17:52:42;;;;;;;;;;;;;;;13.34;57.23;97998.84;4955895;29;20241;-64
2023/03/29 17:55:10;;;;;;;;;;;;;;;13.26;57.84;98001.28;4955654;29;19976;-63
2023/03/29 17:57:36;;;;;;;;;;;;;;;13.20;57.65;97999.13;4956815;28;19961;-63
2023/03/29 18:00:01;;;;;;;;;;;;;;;13.16;57.51;97997.72;4955817;28;19977;-65
2023/03/29 18:02:26;;;;;;;;;;;;;;;13.12;57.27;98001.56;4955759;28;20351;-64
2023/03/29 18:04:51;;;;;;;;;;;;;;;13.07;57.51;97992.25;4952671;29;20372;-62
2023/03/29 18:07:16;;;;;;;;;;;;;;;13.05;57.50;98001.22;4955116;28;20376;-63
2023/03/29 18:09:42;;;;;;;;;;;;;;;13.04;57.24;98010.06;4954839;28;19919;-63
2023/03/29 18:12:07;;;;;;;;;;;;;;;12.98;57.19;98006.16;4956919;28;19922;-63
2023/03/29 18:14:32;;;;;;;;;;;;;;;12.96;58.48;98008.06;4955669;29;19923;-65
2023/03/29 18:16:58;;;;;;;;;;;;;;;12.91;60.46;98010.25;4955659;28;19922;-63
2023/03/29 18:19:23;;;;;;;;;;;;;;;12.86;61.05;98012.41;4956598;28;20269;-63
2023/03/29 18:21:48;;;;;;;;;;;;;;;12.81;61.48;98011.94;4956988;29;19934;-62
2023/03/29 18:24:13;;;;;;;;;;;;;;;12.76;62.15;98014.94;4955206;29;19973;-64
2023/03/29 18:26:38;;;;;;;;;;;;;;;12.75;61.82;98020.34;4956001;29;20389;-64
2023/03/29 18:29:04;;;;;;;;;;;;;;;12.69;62.05;98015.56;4956885;28;19922;-62
2023/03/29 18:31:29;;;;;;;;;;;;;;;12.66;62.76;98019.25;4955695;29;19925;-65
2023/03/29 18:33:54;;;;;;;;;;;;;;;12.62;63.59;98023.09;4956372;28;19918;-63
2023/03/29 18:36:19;;;;;;;;;;;;;;;12.61;63.77;98017.97;4955687;28;20403;-63
2023/03/29 18:38:45;;;;;;;;;;;;;;;12.58;62.94;98011.97;4954405;28;19938;-63
2023/03/29 18:41:11;;;;;;;;;;;;;;;12.57;62.01;98012.94;4956355;28;20375;-64
2023/03/29 18:43:37;;;;;;;;;;;;;;;12.58;62.42;98011.16;4971153;28;19918;-64
2023/03/29 18:46:03;;;;;;;;;;;;;;;12.59;62.39;98008.41;4949038;28;19918;-64
2023/03/29 18:48:28;;;;;;;;;;;;;;;12.56;62.41;98011.28;4954287;29;19925;-64
2023/03/29 18:50:56;;;;;;;;;;;;;;;12.56;62.77;98013.09;4949122;28;19919;-65
2023/03/29 18:53:21;;;;;;;;;;;;;;;12.55;62.45;98009.59;4949823;29;20319;-65
2023/03/29 18:55:47;;;;;;;;;;;;;;;12.54;62.79;98010.56;4953334;28;20387;-64
2023/03/29 18:58:12;;;;;;;;;;;;;;;12.55;63.01;98008.75;4953349;28;20394;-65
2023/03/29 19:00:37;;;;;;;;;;;;;;;12.53;63.11;98005.44;4953484;29;19930;-61
2023/03/29 19:03:03;;;;;;;;;;;;;;;12.53;63.23;98006.28;4955319;28;19918;-63
2023/03/29 19:05:28;;;;;;;;;;;;;;;12.51;63.70;98008.16;4946389;28;19926;-63
2023/03/29 19:07:53;;;;;;;;;;;;;;;12.53;63.78;98008.91;4954508;28;19918;-63
2023/03/29 19:10:19;;;;;;;;;;;;;;;12.53;63.70;98003.63;4955406;29;19924;-62
2023/03/29 19:12:44;;;;;;;;;;;;;;;12.51;63.62;98000.28;4955783;28;19914;-63
2023/03/29 19:15:10;;;;;;;;;;;;;;;12.50;64.61;97996.00;4951886;29;19918;-64
2023/03/29 19:17:35;;;;;;;;;;;;;;;12.49;65.14;97999.59;4950778;29;19919;-63
2023/03/29 19:20:00;;;;;;;;;;;;;;;12.47;65.19;97990.97;4948024;28;19929;-63
2023/03/29 19:22:25;;;;;;;;;;;;;;;12.46;65.62;97994.56;4940925;29;20005;-63
2023/03/29 19:24:50;;;;;;;;;;;;;;;12.45;65.93;98000.75;4954565;29;20291;-63
2023/03/29 19:27:16;;;;;;;;;;;;;;;12.42;66.32;97998.41;4955768;28;19922;-65
2023/03/29 19:29:41;;;;;;;;;;;;;;;12.42;66.10;97994.91;4954153;28;19918;-64
2023/03/29 19:32:06;;;;;;;;;;;;;;;12.41;66.01;97999.34;4946883;28;21402;-65
2023/03/29 19:34:32;;;;;;;;;;;;;;;12.39;66.49;97996.00;4946326;28;19976;-64
2023/03/29 19:36:59;;;;;;;;;;;;;;;12.37;66.67;97995.28;4952496;28;19934;-64
2023/03/29 19:39:26;;;;;;;;;;;;;;;12.37;66.45;97989.19;4955011;28;19923;-64
2023/03/29 19:41:51;;;;;;;;;;;;;;;12.35;66.75;97982.28;4954555;28;20280;-65
2023/03/29 19:44:17;;;;;;;;;;;;;;;12.33;66.92;97980.72;4950680;28;19918;-64
2023/03/29 19:46:42;;;;;;;;;;;;;;;12.30;66.66;97994.94;4953814;28;20360;-64
2023/03/29 19:49:08;;;;;;;;;;;;;;;12.27;67.54;97989.06;4954412;28;19934;-64
2023/03/29 19:51:33;;;;;;;;;;;;;;;12.23;67.38;97990.28;4957081;28;19918;-65
2023/03/29 19:53:59;;;;;;;;;;;;;;;12.22;67.39;97972.84;4953479;28;20324;-64
2023/03/29 19:56:24;;;;;;;;;;;;;;;12.19;67.33;97965.19;4954692;28;19921;-64
2023/03/29 19:58:50;;;;;;;;;;;;;;;12.15;66.95;97963.75;4953583;28;19914;-64
2023/03/29 20:01:19;;;;;;;;;;;;;;;12.14;66.42;97960.28;4952170;28;20414;-64
2023/03/29 20:03:45;;;;;;;;;;;;;;;12.12;67.38;97962.22;4954759;28;19914;-64
2023/03/29 20:06:12;;;;;;;;;;;;;;;12.10;66.95;97962.31;4953807;28;21435;-64
2023/03/29 20:08:37;;;;;;;;;;;;;;;12.09;67.53;97954.56;4954019;28;20012;-63
2023/03/29 20:11:03;;;;;;;;;;;;;;;12.08;67.42;97960.78;4953999;28;20014;-63
2023/03/29 20:13:28;;;;;;;;;;;;;;;12.04;67.59;97957.56;4950476;28;19933;-64
2023/03/29 20:15:53;;;;;;;;;;;;;;;12.03;67.74;97958.50;4953040;29;20037;-64
2023/03/29 20:18:19;;;;;;;;;;;;;;;12.02;67.69;97951.56;4945755;28;19926;-64
2023/03/29 20:20:45;;;;;;;;;;;;;;;12.03;67.17;97965.53;4945688;28;19930;-64
2023/03/29 20:23:10;;;;;;;;;;;;;;;11.99;67.59;97964.13;4940848;28;20017;-64
2023/03/29 20:25:36;;;;;;;;;;;;;;;11.98;67.60;97963.28;4941434;28;19974;-63
2023/03/29 20:28:01;;;;;;;;;;;;;;;11.96;67.19;97959.94;4945463;28;19997;-64
2023/03/29 20:30:27;;;;;;;;;;;;;;;11.95;66.77;97953.00;4947265;29;19970;-64
2023/03/29 20:32:52;;;;;;;;;;;;;;;11.94;67.45;97948.72;4951923;28;19918;-64
2023/03/29 20:35:17;;;;;;;;;;;;;;;11.92;67.93;97949.78;4952150;29;19928;-65
2023/03/29 20:37:42;;;;;;;;;;;;;;;11.90;68.15;97949.91;4947472;28;20012;-64
2023/03/29 20:40:08;;;;;;;;;;;;;;;11.88;68.18;97934.25;4953984;28;19922;-65
2023/03/29 20:42:35;;;;;;;;;;;;;;;11.88;69.29;97930.81;4950743;29;19981;-64
2023/03/29 20:45:00;;;;;;;;;;;;;;;11.86;70.51;97928.28;4952974;29;19918;-64
2023/03/29 20:47:26;;;;;;;;;;;;;;;11.90;69.42;97949.06;4936765;29;19930;-65
2023/03/29 20:49:53;;;;;;;;;;;;;;;11.89;69.55;97942.97;4953887;28;20013;-64
2023/03/29 20:52:19;;;;;;;;;;;;;;;11.93;69.88;97946.19;4953122;28;19946;-64
2023/03/29 20:54:44;;;;;;;;;;;;;;;11.98;68.89;97946.69;4952220;28;19941;-64
2023/03/29 20:57:12;;;;;;;;;;;;;;;12.01;69.17;97931.50;4952520;28;20307;-64
2023/03/29 20:59:38;;;;;;;;;;;;;;;12.03;69.67;97932.22;4952223;28;20027;-64
2023/03/29 21:02:03;;;;;;;;;;;;;;;12.05;69.07;97918.97;4953652;29;20054;-64
2023/03/29 21:04:28;;;;;;;;;;;;;;;12.07;69.29;97914.41;4952273;28;19919;-64
2023/03/29 21:06:54;;;;;;;;;;;;;;;12.06;68.27;97918.00;4952438;28;19962;-64
2023/03/29 21:09:20;;;;;;;;;;;;;;;12.06;68.86;97910.09;4953074;28;19914;-64
2023/03/29 21:11:45;;;;;;;;;;;;;;;12.06;68.56;97908.31;4953534;28;19934;-65
2023/03/29 21:14:11;;;;;;;;;;;;;;;12.08;68.13;97916.94;4951412;28;19925;-65
2023/03/29 21:16:40;;;;;;;;;;;;;;;12.08;68.32;97906.41;4951900;28;19924;-65
2023/03/29 21:19:05;;;;;;;;;;;;;;;12.10;68.31;97903.66;4949011;28;20088;-65
2023/03/29 21:21:32;;;;;;;;;;;;;;;12.08;69.00;97901.16;4953233;28;20452;-64
2023/03/29 21:23:57;;;;;;;;;;;;;;;12.08;68.22;97900.31;4952060;28;19918;-65
2023/03/29 21:26:22;;;;;;;;;;;;;;;12.11;68.38;97902.69;4953236;28;19925;-65
2023/03/29 21:28:48;;;;;;;;;;;;;;;12.13;68.49;97897.31;4953422;28;20013;-65
2023/03/29 21:31:13;;;;;;;;;;;;;;;12.11;68.36;97900.91;4953711;29;20013;-65
2023/03/29 21:33:38;;;;;;;;;;;;;;;12.13;68.06;97886.81;4951536;28;20005;-65
2023/03/29 21:36:03;;;;;;;;;;;;;;;12.08;67.57;97895.06;4951851;29;20013;-65
2023/03/29 21:38:29;;;;;;;;;;;;;;;12.08;68.79;97880.13;4953549;28;19915;-65
2023/03/29 21:40:54;;;;;;;;;;;;;;;12.11;68.41;97881.66;4953479;28;20022;-65
2023/03/29 21:43:20;;;;;;;;;;;;;;;12.09;68.20;97892.31;4952007;29;19942;-65
2023/03/29 21:45:48;;;;;;;;;;;;;;;12.10;68.37;97893.97;4952639;28;19919;-65
2023/03/29 21:48:14;;;;;;;;;;;;;;;12.06;68.56;97886.44;4950890;29;19919;-64
2023/03/29 21:50:39;;;;;;;;;;;;;;;12.09;68.14;97884.41;4950651;28;19925;-65
2023/03/29 21:53:05;;;;;;;;;;;;;;;12.07;68.30;97888.13;4949218;29;19918;-64
2023/03/29 21:55:31;;;;;;;;;;;;;;;12.05;68.39;97872.47;4952982;28;20009;-65
2023/03/29 21:57:57;;;;;;;;;;;;;;;12.04;68.43;97873.44;4952562;28;20292;-65
2023/03/29 22:00:22;;;;;;;;;;;;;;;12.00;68.08;97872.00;4953233;28;20376;-65
2023/03/29 22:02:47;;;;;;;;;;;;;;;12.02;68.41;97871.88;4952815;29;20414;-65
2023/03/29 22:05:13;;;;;;;;;;;;;;;11.95;68.13;97858.41;4952199;29;19918;-65
2023/03/29 22:07:38;;;;;;;;;;;;;;;11.97;68.74;97850.38;4952713;28;19930;-65
2023/03/29 22:10:05;;;;;;;;;;;;;;;11.95;68.55;97852.31;4953172;28;19918;-65
2023/03/29 22:12:30;;;;;;;;;;;;;;;11.94;68.16;97840.09;4951997;28;19918;-63
2023/03/29 22:14:56;;;;;;;;;;;;;;;11.94;68.71;97840.09;4952068;28;19925;-65
2023/03/29 22:17:21;;;;;;;;;;;;;;;11.93;67.88;97849.78;4953212;29;20458;-65
2023/03/29 22:19:47;;;;;;;;;;;;;;;11.92;67.79;97845.50;4952339;28;20328;-65
2023/03/29 22:22:13;;;;;;;;;;;;;;;11.90;68.16;97844.78;4955671;28;19915;-64
2023/03/29 22:24:38;;;;;;;;;;;;;;;11.91;68.56;97846.47;4954685;28;20704;-64
2023/03/29 22:27:03;;;;;;;;;;;;;;;11.91;67.87;97848.25;4950166;29;19942;-65
2023/03/29 22:29:29;;;;;;;;;;;;;;;11.92;68.58;97842.88;4955219;28;19937;-66
2023/03/29 22:31:54;;;;;;;;;;;;;;;11.92;68.00;97837.63;4956271;28;19918;-64
2023/03/29 22:34:19;;;;;;;;;;;;;;;11.88;68.14;97829.16;4954788;28;19918;-66
2023/03/29 22:36:44;;;;;;;;;;;;;;;11.92;68.56;97828.91;4946891;29;19914;-65
2023/03/29 22:39:10;;;;;;;;;;;;;;;11.86;67.86;97832.84;4954558;28;19965;-65
2023/03/29 22:41:36;;;;;;;;;;;;;;;11.85;68.34;97829.38;4956252;28;19922;-64
2023/03/29 22:44:01;;;;;;;;;;;;;;;11.84;68.23;97825.09;4953673;29;19958;-64
2023/03/29 22:46:26;;;;;;;;;;;;;;;11.83;67.88;97825.16;4955922;28;19921;-65
2023/03/29 22:48:52;;;;;;;;;;;;;;;11.81;67.99;97819.22;4956074;28;20299;-64
2023/03/29 22:51:17;;;;;;;;;;;;;;;11.83;67.50;97815.50;4956138;28;20292;-64
2023/03/29 22:53:42;;;;;;;;;;;;;;;11.81;67.88;97816.59;4953312;28;19924;-64
2023/03/29 22:56:07;;;;;;;;;;;;;;;11.84;69.01;97814.59;4953969;28;19940;-64
2023/03/29 22:58:33;;;;;;;;;;;;;;;11.83;68.95;97818.13;4954523;28;19918;-65
2023/03/29 23:00:58;;;;;;;;;;;;;;;11.86;69.41;97811.81;4954637;28;20028;-65
2023/03/29 23:03:24;;;;;;;;;;;;;;;11.86;67.48;97811.81;4954203;28;19998;-64
2023/03/29 23:05:53;;;;;;;;;;;;;;;11.90;68.01;97815.88;4954578;29;19954;-65
2023/03/29 23:08:19;;;;;;;;;;;;;;;11.90;68.58;97813.25;4954788;28;19915;-65
2023/03/29 23:10:45;;;;;;;;;;;;;;;11.88;67.46;97805.50;4955656;28;19926;-64
2023/03/29 23:13:12;;;;;;;;;;;;;;;11.92;68.13;97803.44;4952724;28;19919;-64
2023/03/29 23:15:37;;;;;;;;;;;;;;;11.93;68.65;97799.03;4954988;28;19921;-66
2023/03/29 23:18:03;;;;;;;;;;;;;;;11.91;67.75;97799.16;4948723;29;19914;-64
2023/03/29 23:20:29;;;;;;;;;;;;;;;11.86;68.23;97796.06;4955495;28;19929;-64
2023/03/29 23:22:54;;;;;;;;;;;;;;;11.87;68.39;97797.72;4950575;28;19923;-64
2023/03/29 23:25:19;;;;;;;;;;;;;;;11.90;67.91;97797.47;4953384;28;20013;-63
2023/03/29 23:27:44;;;;;;;;;;;;;;;11.90;67.97;97786.97;4951446;28;19925;-63
2023/03/29 23:30:10;;;;;;;;;;;;;;;11.90;67.69;97786.97;4955198;28;20452;-64
2023/03/29 23:32:35;;;;;;;;;;;;;;;11.87;68.03;97785.44;4954302;28;20581;-64
2023/03/29 23:35:03;;;;;;;;;;;;;;;11.85;68.46;97781.25;4953346;28;20420;-64
2023/03/29 23:37:28;;;;;;;;;;;;;;;11.83;68.23;97781.31;4954206;29;19914;-64
2023/03/29 23:39:53;;;;;;;;;;;;;;;11.83;68.70;97775.25;4953453;28;20574;-64
2023/03/29 23:42:19;;;;;;;;;;;;;;;11.83;67.87;97777.88;4953408;28;20304;-64
2023/03/29 23:44:45;;;;;;;;;;;;;;;11.82;68.69;97773.59;4951332;28;19922;-65
2023/03/29 23:47:10;;;;;;;;;;;;;;;11.83;68.62;97770.81;4955001;29;19962;-64
2023/03/29 23:49:36;;;;;;;;;;;;;;;11.83;69.25;97764.72;4954659;28;19923;-65
2023/03/29 23:52:01;;;;;;;;;;;;;;;11.86;69.23;97767.16;4953427;28;19914;-65
2023/03/29 23:54:27;;;;;;;;;;;;;;;11.87;68.81;97760.91;4952269;28;19918;-64
2023/03/29 23:56:53;;;;;;;;;;;;;;;11.86;69.21;97757.47;4953762;29;20001;-64
2023/03/29 23:59:18;;;;;;;;;;;;;;;11.86;68.69;97751.38;4954909;28;20004;-64
